3 Oak — V7YJ3 — position and weather

sailwx.info

Track history (hours):
 
Tides and Currents Weather Stations Pressure Air Temp Water Temp Dewpoint Dewpoint Depression Visibility Wind Speed Wind Dir Waves Ship Positions

3 Oak

Last reported at 2018-May-29 01:07 UTC. Time now 2018-Jun-19 02:48 UTC.
Position N 01°24' E 103°12'.
Warning: this ship's position is 21 days out of date.

Length 125 m; draft 6.8 m.

Type: Cargo ship. MMSI: 538004672.

Date/timePositionNaut miles runAvg speedWind from/ knotsBaromVisibWave heightAir tempDewpointWater temp
2018-May-29 01:07N 01°24' E 103°12'1 8.9
2018-May-29 00:58N 01°23' E 103°13'5 9.3
2018-May-29 00:29N 01°20' E 103°17'4 9.1
2018-May-29 00:00N 01°18' E 103°21'611.8
2018-May-28 23:30N 01°14' E 103°25'510.7
2018-May-28 23:00N 01°13' E 103°30'510.5
2018-May-28 22:30N 01°12' E 103°36'510.1
2018-May-28 22:00N 01°10' E 103°40'4 9.0
2018-May-28 21:31N 01°08' E 103°44'510.0
2018-May-28 21:00N 01°11' E 103°49'4 8.7
2018-May-28 20:30N 01°13' E 103°53'2 3.9
2018-May-28 20:00N 01°14' E 103°54'0 0.1
2018-May-28 19:30N 01°14' E 103°54'0 0.1
2018-May-28 19:00N 01°14' E 103°54'0 0.0
2018-May-28 18:27N 01°14' E 103°54'0 0.1
2018-May-28 18:00N 01°14' E 103°54'0 0.0
2018-May-28 17:30N 01°14' E 103°54'0 0.1
2018-May-28 16:58N 01°14' E 103°54'0 0.1
2018-May-28 16:28N 01°14' E 103°54'0 0.1
2018-May-28 16:00N 01°14' E 103°54'0 0.1
2018-May-28 15:30N 01°14' E 103°54'0 0.1
2018-May-28 15:00N 01°14' E 103°54'0 0.1
2018-May-28 14:30N 01°14' E 103°54'0 0.1
2018-May-28 14:00N 01°14' E 103°54'0 0.0
2018-May-28 13:25N 01°14' E 103°54'0 0.0
2018-May-28 13:00N 01°14' E 103°54'0 0.0
2018-May-28 12:30N 01°14' E 103°54'0 0.0
2018-May-28 12:00N 01°14' E 103°54'0 0.0
2018-May-28 11:30N 01°14' E 103°54'0 0.0
2018-May-28 11:00N 01°14' E 103°54'0 0.1
2018-May-28 10:30N 01°14' E 103°54'0 0.0
2018-May-28 09:58N 01°14' E 103°54'0 0.0
2018-May-28 09:28N 01°14' E 103°54'0 0.1
2018-May-28 09:00N 01°14' E 103°54'0 0.2
2018-May-28 08:30N 01°14' E 103°54'0 0.3
2018-May-28 08:00N 01°14' E 103°54'0 0.1
2018-May-28 07:30N 01°14' E 103°54'0 0.1
2018-May-28 06:55N 01°14' E 103°54'0 0.1
2018-May-28 06:30N 01°14' E 103°54'0 0.1
2018-May-28 06:00N 01°14' E 103°54'0 0.0
2018-May-28 05:30N 01°14' E 103°54'0 0.0
2018-May-28 04:58N 01°14' E 103°54'0 0.1
2018-May-28 04:30N 01°14' E 103°54'0 0.0
2018-May-28 04:00N 01°14' E 103°54'0 0.0
2018-May-28 03:30N 01°14' E 103°54'0 0.1
2018-May-28 03:00N 01°14' E 103°54'0 0.0
2018-May-28 02:30N 01°14' E 103°54'0 0.1
2018-May-28 02:00N 01°14' E 103°54'0 0.0
2018-May-28 01:30N 01°14' E 103°54'0 0.5
2018-May-28 01:00N 01°14' E 103°54'0 0.4
2018-May-28 00:30N 01°14' E 103°54'3 6.9
2018-May-28 00:00N 01°15' E 103°57'1 2.9
2018-May-27 23:30N 01°15' E 103°59'2 4.8
2018-May-27 23:00N 01°16' E 104°01'3 5.5
2018-May-27 22:29N 01°16' E 104°04'4 9.2
2018-May-27 22:00N 01°17' E 104°08'4 8.5
2018-May-27 21:30N 01°17' E 104°12'5 9.1
2018-May-27 21:00N 01°18' E 104°17'611.1
2018-May-27 20:29N 01°21' E 104°22'811.7
2018-May-27 19:47N 01°26' E 104°28'1211.9
2018-May-27 18:46N 01°35' E 104°36'  
Track history (hours):
 
Tides and Currents Weather Stations Pressure Air Temp Water Temp Dewpoint Dewpoint Depression Visibility Wind Speed Wind Dir Waves Ship Positions

3 Oak

Last reported at 2018-May-29 01:07 UTC. Time now 2018-Jun-19 02:48 UTC.
Position N 01°24' E 103°12'.
Warning: this ship's position is 21 days out of date.

Length 125 m; draft 6.8 m.

Type: Cargo ship. MMSI: 538004672.

Date/timePositionNaut miles runAvg speedWind from/ knotsBaromVisibWave heightAir tempDewpointWater temp
2018-May-29 01:07N 01°24' E 103°12'1 8.9
2018-May-29 00:58N 01°23' E 103°13'5 9.3
2018-May-29 00:29N 01°20' E 103°17'4 9.1
2018-May-29 00:00N 01°18' E 103°21'611.8
2018-May-28 23:30N 01°14' E 103°25'510.7
2018-May-28 23:00N 01°13' E 103°30'510.5
2018-May-28 22:30N 01°12' E 103°36'510.1
2018-May-28 22:00N 01°10' E 103°40'4 9.0
2018-May-28 21:31N 01°08' E 103°44'510.0
2018-May-28 21:00N 01°11' E 103°49'4 8.7
2018-May-28 20:30N 01°13' E 103°53'2 3.9
2018-May-28 20:00N 01°14' E 103°54'0 0.1
2018-May-28 19:30N 01°14' E 103°54'0 0.1
2018-May-28 19:00N 01°14' E 103°54'0 0.0
2018-May-28 18:27N 01°14' E 103°54'0 0.1
2018-May-28 18:00N 01°14' E 103°54'0 0.0
2018-May-28 17:30N 01°14' E 103°54'0 0.1
2018-May-28 16:58N 01°14' E 103°54'0 0.1
2018-May-28 16:28N 01°14' E 103°54'0 0.1
2018-May-28 16:00N 01°14' E 103°54'0 0.1
2018-May-28 15:30N 01°14' E 103°54'0 0.1
2018-May-28 15:00N 01°14' E 103°54'0 0.1
2018-May-28 14:30N 01°14' E 103°54'0 0.1
2018-May-28 14:00N 01°14' E 103°54'0 0.0
2018-May-28 13:25N 01°14' E 103°54'0 0.0
2018-May-28 13:00N 01°14' E 103°54'0 0.0
2018-May-28 12:30N 01°14' E 103°54'0 0.0
2018-May-28 12:00N 01°14' E 103°54'0 0.0
2018-May-28 11:30N 01°14' E 103°54'0 0.0
2018-May-28 11:00N 01°14' E 103°54'0 0.1
2018-May-28 10:30N 01°14' E 103°54'0 0.0
2018-May-28 09:58N 01°14' E 103°54'0 0.0
2018-May-28 09:28N 01°14' E 103°54'0 0.1
2018-May-28 09:00N 01°14' E 103°54'0 0.2
2018-May-28 08:30N 01°14' E 103°54'0 0.3
2018-May-28 08:00N 01°14' E 103°54'0 0.1
2018-May-28 07:30N 01°14' E 103°54'0 0.1
2018-May-28 06:55N 01°14' E 103°54'0 0.1
2018-May-28 06:30N 01°14' E 103°54'0 0.1
2018-May-28 06:00N 01°14' E 103°54'0 0.0
2018-May-28 05:30N 01°14' E 103°54'0 0.0
2018-May-28 04:58N 01°14' E 103°54'0 0.1
2018-May-28 04:30N 01°14' E 103°54'0 0.0
2018-May-28 04:00N 01°14' E 103°54'0 0.0
2018-May-28 03:30N 01°14' E 103°54'0 0.1
2018-May-28 03:00N 01°14' E 103°54'0 0.0
2018-May-28 02:30N 01°14' E 103°54'0 0.1
2018-May-28 02:00N 01°14' E 103°54'0 0.0
2018-May-28 01:30N 01°14' E 103°54'0 0.5
2018-May-28 01:00N 01°14' E 103°54'0 0.4
2018-May-28 00:30N 01°14' E 103°54'3 6.9
2018-May-28 00:00N 01°15' E 103°57'1 2.9
2018-May-27 23:30N 01°15' E 103°59'2 4.8
2018-May-27 23:00N 01°16' E 104°01'3 5.5
2018-May-27 22:29N 01°16' E 104°04'4 9.2
2018-May-27 22:00N 01°17' E 104°08'4 8.5
2018-May-27 21:30N 01°17' E 104°12'5 9.1
2018-May-27 21:00N 01°18' E 104°17'611.1
2018-May-27 20:29N 01°21' E 104°22'811.7
2018-May-27 19:47N 01°26' E 104°28'1211.9
2018-May-27 18:46N 01°35' E 104°36'  

Dump ship's entire track history